sensor_id;sensor_type;location;lat;lon;timestamp;temperature;humidity
21035;DHT22;10676;50.848;3.272;2023-05-07T00:02:25;16.60;99.90
21035;DHT22;10676;50.848;3.272;2023-05-07T00:04:51;16.60;99.90
21035;DHT22;10676;50.848;3.272;2023-05-07T00:07:17;16.60;99.90
21035;DHT22;10676;50.848;3.272;2023-05-07T00:09:43;16.50;99.90
21035;DHT22;10676;50.848;3.272;2023-05-07T00:12:09;16.50;99.90
21035;DHT22;10676;50.848;3.272;2023-05-07T00:14:35;16.50;99.90
21035;DHT22;10676;50.848;3.272;2023-05-07T00:17:01;16.40;99.90
21035;DHT22;10676;50.848;3.272;2023-05-07T00:19:27;16.40;99.90
21035;DHT22;10676;50.848;3.272;2023-05-07T00:21:53;16.40;99.90
21035;DHT22;10676;50.848;3.272;2023-05-07T00:24:19;16.40;99.90
21035;DHT22;10676;50.848;3.272;2023-05-07T00:26:45;16.30;99.90
21035;DHT22;10676;50.848;3.272;2023-05-07T00:29:11;16.30;99.90
21035;DHT22;10676;50.848;3.272;2023-05-07T00:31:36;16.30;99.90
21035;DHT22;10676;50.848;3.272;2023-05-07T00:34:02;16.30;99.90
21035;DHT22;10676;50.848;3.272;2023-05-07T00:36:28;16.20;99.90
21035;DHT22;10676;50.848;3.272;2023-05-07T00:38:56;16.20;99.90
21035;DHT22;10676;50.848;3.272;2023-05-07T00:41:22;16.20;99.90
21035;DHT22;10676;50.848;3.272;2023-05-07T00:43:48;16.20;99.90
21035;DHT22;10676;50.848;3.272;2023-05-07T00:46:14;16.10;99.90
21035;DHT22;10676;50.848;3.272;2023-05-07T00:48:41;16.10;99.90
21035;DHT22;10676;50.848;3.272;2023-05-07T00:51:06;16.10;99.90
21035;DHT22;10676;50.848;3.272;2023-05-07T00:53:32;16.10;99.90
21035;DHT22;10676;50.848;3.272;2023-05-07T00:55:58;16.10;99.90
21035;DHT22;10676;50.848;3.272;2023-05-07T00:58:26;16.10;99.90
21035;DHT22;10676;50.848;3.272;2023-05-07T01:00:52;16.10;99.90
21035;DHT22;10676;50.848;3.272;2023-05-07T01:03:17;16.10;99.90
21035;DHT22;10676;50.848;3.272;2023-05-07T01:05:45;16.10;99.90
21035;DHT22;10676;50.848;3.272;2023-05-07T01:08:13;16.10;99.90
21035;DHT22;10676;50.848;3.272;2023-05-07T01:10:39;16.10;99.90
21035;DHT22;10676;50.848;3.272;2023-05-07T01:13:09;16.10;99.90
21035;DHT22;10676;50.848;3.272;2023-05-07T01:15:36;16.10;99.90
21035;DHT22;10676;50.848;3.272;2023-05-07T01:18:02;16.10;99.90
21035;DHT22;10676;50.848;3.272;2023-05-07T01:20:28;16.10;99.90
21035;DHT22;10676;50.848;3.272;2023-05-07T01:22:55;16.10;99.90
21035;DHT22;10676;50.848;3.272;2023-05-07T01:25:22;16.00;99.90
21035;DHT22;10676;50.848;3.272;2023-05-07T01:27:47;16.00;99.90
21035;DHT22;10676;50.848;3.272;2023-05-07T01:30:13;16.00;99.90
21035;DHT22;10676;50.848;3.272;2023-05-07T01:32:48;16.00;99.90
21035;DHT22;10676;50.848;3.272;2023-05-07T01:35:19;16.00;99.90
21035;DHT22;10676;50.848;3.272;2023-05-07T01:37:46;16.00;99.90
21035;DHT22;10676;50.848;3.272;2023-05-07T01:40:13;15.90;99.90
21035;DHT22;10676;50.848;3.272;2023-05-07T01:42:39;15.90;99.90
21035;DHT22;10676;50.848;3.272;2023-05-07T01:45:07;15.90;99.90
21035;DHT22;10676;50.848;3.272;2023-05-07T01:47:33;15.90;99.90
21035;DHT22;10676;50.848;3.272;2023-05-07T01:49:59;15.90;99.90
21035;DHT22;10676;50.848;3.272;2023-05-07T01:52:25;15.90;99.90
21035;DHT22;10676;50.848;3.272;2023-05-07T01:54:50;15.90;99.90
21035;DHT22;10676;50.848;3.272;2023-05-07T01:57:16;15.90;99.90
21035;DHT22;10676;50.848;3.272;2023-05-07T01:59:42;15.90;99.90
21035;DHT22;10676;50.848;3.272;2023-05-07T02:02:07;15.90;99.90
21035;DHT22;10676;50.848;3.272;2023-05-07T02:04:33;15.90;99.90
21035;DHT22;10676;50.848;3.272;2023-05-07T02:06:59;15.90;99.90
21035;DHT22;10676;50.848;3.272;2023-05-07T02:09:24;16.00;99.90
21035;DHT22;10676;50.848;3.272;2023-05-07T02:11:50;16.00;99.90
21035;DHT22;10676;50.848;3.272;2023-05-07T02:14:16;16.00;99.90
21035;DHT22;10676;50.848;3.272;2023-05-07T02:16:41;16.00;99.90
21035;DHT22;10676;50.848;3.272;2023-05-07T02:19:07;16.00;99.90
21035;DHT22;10676;50.848;3.272;2023-05-07T02:21:33;16.00;99.90
21035;DHT22;10676;50.848;3.272;2023-05-07T02:23:58;16.00;99.90
21035;DHT22;10676;50.848;3.272;2023-05-07T02:26:24;16.00;99.90
21035;DHT22;10676;50.848;3.272;2023-05-07T02:28:51;16.00;99.90
21035;DHT22;10676;50.848;3.272;2023-05-07T02:31:17;16.00;99.90
21035;DHT22;10676;50.848;3.272;2023-05-07T02:33:43;16.00;99.90
21035;DHT22;10676;50.848;3.272;2023-05-07T02:36:09;16.00;99.90
21035;DHT22;10676;50.848;3.272;2023-05-07T02:38:35;16.00;99.90
21035;DHT22;10676;50.848;3.272;2023-05-07T02:41:01;16.00;99.90
21035;DHT22;10676;50.848;3.272;2023-05-07T02:43:27;16.00;99.90
21035;DHT22;10676;50.848;3.272;2023-05-07T02:46:05;16.00;99.90
21035;DHT22;10676;50.848;3.272;2023-05-07T02:48:31;16.00;99.90
21035;DHT22;10676;50.848;3.272;2023-05-07T02:50:58;16.00;99.90
21035;DHT22;10676;50.848;3.272;2023-05-07T02:53:24;15.90;99.90
21035;DHT22;10676;50.848;3.272;2023-05-07T02:56:01;15.90;99.90
21035;DHT22;10676;50.848;3.272;2023-05-07T02:58:27;15.90;99.90
21035;DHT22;10676;50.848;3.272;2023-05-07T03:00:53;15.90;99.90
21035;DHT22;10676;50.848;3.272;2023-05-07T03:03:20;15.90;99.90
21035;DHT22;10676;50.848;3.272;2023-05-07T03:05:46;15.90;99.90
21035;DHT22;10676;50.848;3.272;2023-05-07T03:08:12;15.90;99.90
21035;DHT22;10676;50.848;3.272;2023-05-07T03:10:37;15.90;99.90
21035;DHT22;10676;50.848;3.272;2023-05-07T03:13:03;15.90;99.90
21035;DHT22;10676;50.848;3.272;2023-05-07T03:15:29;15.90;99.90
21035;DHT22;10676;50.848;3.272;2023-05-07T03:17:55;15.90;99.90
21035;DHT22;10676;50.848;3.272;2023-05-07T03:20:21;15.90;99.90
21035;DHT22;10676;50.848;3.272;2023-05-07T03:22:46;15.90;99.90
21035;DHT22;10676;50.848;3.272;2023-05-07T03:25:12;15.90;99.90
21035;DHT22;10676;50.848;3.272;2023-05-07T03:27:39;16.00;99.90
21035;DHT22;10676;50.848;3.272;2023-05-07T03:30:05;16.00;99.90
21035;DHT22;10676;50.848;3.272;2023-05-07T03:32:32;16.00;99.90
21035;DHT22;10676;50.848;3.272;2023-05-07T03:34:58;16.00;99.90
21035;DHT22;10676;50.848;3.272;2023-05-07T03:37:23;16.00;99.90
21035;DHT22;10676;50.848;3.272;2023-05-07T03:39:49;16.10;99.90
21035;DHT22;10676;50.848;3.272;2023-05-07T03:42:15;16.10;99.90
21035;DHT22;10676;50.848;3.272;2023-05-07T03:44:40;16.10;99.90
21035;DHT22;10676;50.848;3.272;2023-05-07T03:47:06;16.10;99.90
21035;DHT22;10676;50.848;3.272;2023-05-07T03:49:32;16.10;99.90
21035;DHT22;10676;50.848;3.272;2023-05-07T03:51:57;16.20;99.90
21035;DHT22;10676;50.848;3.272;2023-05-07T03:54:23;16.20;99.90
21035;DHT22;10676;50.848;3.272;2023-05-07T03:56:49;16.20;99.90
21035;DHT22;10676;50.848;3.272;2023-05-07T03:59:14;16.20;99.90
21035;DHT22;10676;50.848;3.272;2023-05-07T04:01:40;16.20;99.90
21035;DHT22;10676;50.848;3.272;2023-05-07T04:04:06;16.20;99.90
21035;DHT22;10676;50.848;3.272;2023-05-07T04:06:31;16.20;99.90
21035;DHT22;10676;50.848;3.272;2023-05-07T04:08:57;16.30;99.90
21035;DHT22;10676;50.848;3.272;2023-05-07T04:11:23;16.30;99.90
21035;DHT22;10676;50.848;3.272;2023-05-07T04:13:49;16.30;99.90
21035;DHT22;10676;50.848;3.272;2023-05-07T04:16:15;16.30;99.90
21035;DHT22;10676;50.848;3.272;2023-05-07T04:18:41;16.30;99.90
21035;DHT22;10676;50.848;3.272;2023-05-07T04:21:17;16.30;99.90
21035;DHT22;10676;50.848;3.272;2023-05-07T04:23:43;16.30;99.90
21035;DHT22;10676;50.848;3.272;2023-05-07T04:26:09;16.30;99.90
21035;DHT22;10676;50.848;3.272;2023-05-07T04:28:35;16.30;99.90
21035;DHT22;10676;50.848;3.272;2023-05-07T04:31:00;16.30;99.90
21035;DHT22;10676;50.848;3.272;2023-05-07T04:33:26;16.30;99.90
21035;DHT22;10676;50.848;3.272;2023-05-07T04:35:52;16.40;99.90
21035;DHT22;10676;50.848;3.272;2023-05-07T04:38:17;16.40;99.90
21035;DHT22;10676;50.848;3.272;2023-05-07T04:40:44;16.40;99.90
21035;DHT22;10676;50.848;3.272;2023-05-07T04:43:10;16.40;99.90
21035;DHT22;10676;50.848;3.272;2023-05-07T04:45:36;16.40;99.90
21035;DHT22;10676;50.848;3.272;2023-05-07T04:48:02;16.40;99.90
21035;DHT22;10676;50.848;3.272;2023-05-07T04:50:28;16.40;99.90
21035;DHT22;10676;50.848;3.272;2023-05-07T04:52:53;16.40;99.90
21035;DHT22;10676;50.848;3.272;2023-05-07T04:55:19;16.40;99.90
21035;DHT22;10676;50.848;3.272;2023-05-07T04:57:45;16.50;99.90
21035;DHT22;10676;50.848;3.272;2023-05-07T05:00:11;16.50;99.90
21035;DHT22;10676;50.848;3.272;2023-05-07T05:02:40;16.60;99.90
21035;DHT22;10676;50.848;3.272;2023-05-07T05:05:06;16.60;99.90
21035;DHT22;10676;50.848;3.272;2023-05-07T05:07:32;16.60;99.90
21035;DHT22;10676;50.848;3.272;2023-05-07T05:09:58;16.60;99.90
21035;DHT22;10676;50.848;3.272;2023-05-07T05:12:24;16.70;99.90
21035;DHT22;10676;50.848;3.272;2023-05-07T05:14:50;16.70;99.90
21035;DHT22;10676;50.848;3.272;2023-05-07T05:17:15;16.70;99.90
21035;DHT22;10676;50.848;3.272;2023-05-07T05:19:41;16.80;99.90
21035;DHT22;10676;50.848;3.272;2023-05-07T05:22:07;16.90;99.90
21035;DHT22;10676;50.848;3.272;2023-05-07T05:24:32;16.90;99.90
21035;DHT22;10676;50.848;3.272;2023-05-07T05:26:58;17.00;99.90
21035;DHT22;10676;50.848;3.272;2023-05-07T05:29:27;17.10;99.90
21035;DHT22;10676;50.848;3.272;2023-05-07T05:31:53;17.10;99.90
21035;DHT22;10676;50.848;3.272;2023-05-07T05:34:18;17.20;99.90
21035;DHT22;10676;50.848;3.272;2023-05-07T05:36:47;17.30;99.90
21035;DHT22;10676;50.848;3.272;2023-05-07T05:39:13;17.40;99.90
21035;DHT22;10676;50.848;3.272;2023-05-07T05:41:39;17.40;99.90
21035;DHT22;10676;50.848;3.272;2023-05-07T05:44:05;17.50;99.90
21035;DHT22;10676;50.848;3.272;2023-05-07T05:46:31;17.60;99.90
21035;DHT22;10676;50.848;3.272;2023-05-07T05:48:56;17.60;99.90
21035;DHT22;10676;50.848;3.272;2023-05-07T05:51:22;17.60;99.90
21035;DHT22;10676;50.848;3.272;2023-05-07T05:53:48;17.60;99.90
21035;DHT22;10676;50.848;3.272;2023-05-07T05:56:15;17.60;99.90
21035;DHT22;10676;50.848;3.272;2023-05-07T05:58:41;17.60;99.90
21035;DHT22;10676;50.848;3.272;2023-05-07T06:01:07;17.60;99.90
21035;DHT22;10676;50.848;3.272;2023-05-07T06:03:32;17.60;99.90
21035;DHT22;10676;50.848;3.272;2023-05-07T06:05:58;17.60;99.90
21035;DHT22;10676;50.848;3.272;2023-05-07T06:08:25;17.60;99.90
21035;DHT22;10676;50.848;3.272;2023-05-07T06:10:51;17.70;99.90
21035;DHT22;10676;50.848;3.272;2023-05-07T06:13:17;17.70;99.90
21035;DHT22;10676;50.848;3.272;2023-05-07T06:15:42;17.70;99.90
21035;DHT22;10676;50.848;3.272;2023-05-07T06:18:08;17.70;99.90
21035;DHT22;10676;50.848;3.272;2023-05-07T06:20:34;17.70;99.90
21035;DHT22;10676;50.848;3.272;2023-05-07T06:22:59;17.70;99.90
21035;DHT22;10676;50.848;3.272;2023-05-07T06:25:25;17.70;99.90
21035;DHT22;10676;50.848;3.272;2023-05-07T06:27:51;17.70;99.90
21035;DHT22;10676;50.848;3.272;2023-05-07T06:30:16;17.70;99.90
21035;DHT22;10676;50.848;3.272;2023-05-07T06:32:42;17.70;99.90
21035;DHT22;10676;50.848;3.272;2023-05-07T06:35:08;17.70;99.90
21035;DHT22;10676;50.848;3.272;2023-05-07T06:37:34;17.60;99.90
21035;DHT22;10676;50.848;3.272;2023-05-07T06:39:59;17.60;99.90
21035;DHT22;10676;50.848;3.272;2023-05-07T06:42:25;17.50;99.90
21035;DHT22;10676;50.848;3.272;2023-05-07T06:44:51;17.50;99.90
21035;DHT22;10676;50.848;3.272;2023-05-07T06:47:17;17.50;99.90
21035;DHT22;10676;50.848;3.272;2023-05-07T06:49:43;17.50;99.90
21035;DHT22;10676;50.848;3.272;2023-05-07T06:52:08;17.50;99.90
21035;DHT22;10676;50.848;3.272;2023-05-07T06:54:34;17.40;99.90
21035;DHT22;10676;50.848;3.272;2023-05-07T06:57:00;17.40;99.90
21035;DHT22;10676;50.848;3.272;2023-05-07T06:59:26;17.40;99.90
21035;DHT22;10676;50.848;3.272;2023-05-07T07:01:51;17.50;99.90
21035;DHT22;10676;50.848;3.272;2023-05-07T07:04:17;17.40;99.90
21035;DHT22;10676;50.848;3.272;2023-05-07T07:06:43;17.50;99.90
21035;DHT22;10676;50.848;3.272;2023-05-07T07:09:08;17.50;99.90
21035;DHT22;10676;50.848;3.272;2023-05-07T07:11:34;17.50;99.90
21035;DHT22;10676;50.848;3.272;2023-05-07T07:14:00;17.50;99.90
21035;DHT22;10676;50.848;3.272;2023-05-07T07:16:25;17.60;99.90
21035;DHT22;10676;50.848;3.272;2023-05-07T07:18:51;17.60;99.90
21035;DHT22;10676;50.848;3.272;2023-05-07T07:21:17;17.60;99.90
21035;DHT22;10676;50.848;3.272;2023-05-07T07:23:42;17.70;99.90
21035;DHT22;10676;50.848;3.272;2023-05-07T07:26:08;17.70;99.90
21035;DHT22;10676;50.848;3.272;2023-05-07T07:28:34;17.70;99.90
21035;DHT22;10676;50.848;3.272;2023-05-07T07:31:00;17.70;99.90
21035;DHT22;10676;50.848;3.272;2023-05-07T07:33:25;17.80;99.90
21035;DHT22;10676;50.848;3.272;2023-05-07T07:35:51;17.80;99.90
21035;DHT22;10676;50.848;3.272;2023-05-07T07:38:17;17.90;99.90
21035;DHT22;10676;50.848;3.272;2023-05-07T07:40:42;18.00;99.90
21035;DHT22;10676;50.848;3.272;2023-05-07T07:43:09;18.10;99.90
21035;DHT22;10676;50.848;3.272;2023-05-07T07:45:35;18.10;99.90
21035;DHT22;10676;50.848;3.272;2023-05-07T07:48:01;18.20;99.90
21035;DHT22;10676;50.848;3.272;2023-05-07T07:50:27;18.20;99.90
21035;DHT22;10676;50.848;3.272;2023-05-07T07:52:52;18.30;99.90
21035;DHT22;10676;50.848;3.272;2023-05-07T07:55:20;18.30;99.90
21035;DHT22;10676;50.848;3.272;2023-05-07T07:57:48;18.30;99.90
21035;DHT22;10676;50.848;3.272;2023-05-07T08:00:15;18.40;99.90
21035;DHT22;10676;50.848;3.272;2023-05-07T08:02:41;18.40;99.90
21035;DHT22;10676;50.848;3.272;2023-05-07T08:05:07;18.40;99.90
21035;DHT22;10676;50.848;3.272;2023-05-07T08:07:32;18.50;99.90
21035;DHT22;10676;50.848;3.272;2023-05-07T08:09:58;18.50;99.90
21035;DHT22;10676;50.848;3.272;2023-05-07T08:12:24;18.50;99.90
21035;DHT22;10676;50.848;3.272;2023-05-07T08:14:50;18.50;99.90
21035;DHT22;10676;50.848;3.272;2023-05-07T08:17:15;18.50;99.90
21035;DHT22;10676;50.848;3.272;2023-05-07T08:19:42;18.60;99.90
21035;DHT22;10676;50.848;3.272;2023-05-07T08:22:09;18.60;99.90
21035;DHT22;10676;50.848;3.272;2023-05-07T08:24:36;18.70;99.90
21035;DHT22;10676;50.848;3.272;2023-05-07T08:27:02;18.80;99.90
21035;DHT22;10676;50.848;3.272;2023-05-07T08:29:27;18.90;99.90
21035;DHT22;10676;50.848;3.272;2023-05-07T08:31:53;19.10;99.90
21035;DHT22;10676;50.848;3.272;2023-05-07T08:34:20;19.20;99.90
21035;DHT22;10676;50.848;3.272;2023-05-07T08:36:46;19.30;99.90
21035;DHT22;10676;50.848;3.272;2023-05-07T08:39:15;19.50;99.90
21035;DHT22;10676;50.848;3.272;2023-05-07T08:41:44;19.60;99.90
21035;DHT22;10676;50.848;3.272;2023-05-07T08:44:14;19.70;99.90
21035;DHT22;10676;50.848;3.272;2023-05-07T08:46:41;19.80;99.90
21035;DHT22;10676;50.848;3.272;2023-05-07T08:49:07;19.90;99.90
21035;DHT22;10676;50.848;3.272;2023-05-07T08:51:34;20.00;99.90
21035;DHT22;10676;50.848;3.272;2023-05-07T08:54:01;20.00;99.90
21035;DHT22;10676;50.848;3.272;2023-05-07T08:56:27;20.00;99.90
21035;DHT22;10676;50.848;3.272;2023-05-07T08:58:53;19.90;99.90
21035;DHT22;10676;50.848;3.272;2023-05-07T09:01:22;19.90;99.90
21035;DHT22;10676;50.848;3.272;2023-05-07T09:03:47;19.90;99.90
21035;DHT22;10676;50.848;3.272;2023-05-07T09:06:13;20.00;99.90
21035;DHT22;10676;50.848;3.272;2023-05-07T09:08:39;20.00;99.90
21035;DHT22;10676;50.848;3.272;2023-05-07T09:11:05;20.00;99.90
21035;DHT22;10676;50.848;3.272;2023-05-07T09:13:31;20.00;99.90
21035;DHT22;10676;50.848;3.272;2023-05-07T09:15:56;20.10;99.90
21035;DHT22;10676;50.848;3.272;2023-05-07T09:18:25;20.10;99.90
21035;DHT22;10676;50.848;3.272;2023-05-07T09:20:51;20.30;99.90
21035;DHT22;10676;50.848;3.272;2023-05-07T09:23:17;20.40;99.90
21035;DHT22;10676;50.848;3.272;2023-05-07T09:25:42;20.50;99.90
21035;DHT22;10676;50.848;3.272;2023-05-07T09:28:08;20.60;99.90
21035;DHT22;10676;50.848;3.272;2023-05-07T09:30:35;20.70;99.90
21035;DHT22;10676;50.848;3.272;2023-05-07T09:33:02;20.90;99.90
21035;DHT22;10676;50.848;3.272;2023-05-07T09:35:30;21.00;99.90
21035;DHT22;10676;50.848;3.272;2023-05-07T09:37:57;21.10;99.90
21035;DHT22;10676;50.848;3.272;2023-05-07T09:40:28;21.30;99.90
21035;DHT22;10676;50.848;3.272;2023-05-07T09:42:54;21.50;99.90
21035;DHT22;10676;50.848;3.272;2023-05-07T09:45:25;21.60;99.90
21035;DHT22;10676;50.848;3.272;2023-05-07T09:47:55;21.90;99.90
21035;DHT22;10676;50.848;3.272;2023-05-07T09:50:29;22.00;99.90
21035;DHT22;10676;50.848;3.272;2023-05-07T09:52:56;22.20;99.90
21035;DHT22;10676;50.848;3.272;2023-05-07T09:55:22;22.40;99.90
21035;DHT22;10676;50.848;3.272;2023-05-07T09:57:52;22.50;99.90
21035;DHT22;10676;50.848;3.272;2023-05-07T10:00:20;22.80;99.90
21035;DHT22;10676;50.848;3.272;2023-05-07T10:02:51;23.00;99.90
21035;DHT22;10676;50.848;3.272;2023-05-07T10:05:22;23.30;99.90
21035;DHT22;10676;50.848;3.272;2023-05-07T10:07:48;23.50;99.90
21035;DHT22;10676;50.848;3.272;2023-05-07T10:10:14;23.70;99.90
21035;DHT22;10676;50.848;3.272;2023-05-07T10:12:43;23.80;99.90
21035;DHT22;10676;50.848;3.272;2023-05-07T10:15:10;24.00;99.90
21035;DHT22;10676;50.848;3.272;2023-05-07T10:17:36;24.10;99.90
21035;DHT22;10676;50.848;3.272;2023-05-07T10:20:03;24.10;99.90
21035;DHT22;10676;50.848;3.272;2023-05-07T10:22:41;24.30;99.90
21035;DHT22;10676;50.848;3.272;2023-05-07T10:25:28;24.30;99.90
21035;DHT22;10676;50.848;3.272;2023-05-07T10:27:55;24.50;99.90
21035;DHT22;10676;50.848;3.272;2023-05-07T10:32:53;24.80;99.90
21035;DHT22;10676;50.848;3.272;2023-05-07T10:35:23;24.90;99.90
21035;DHT22;10676;50.848;3.272;2023-05-07T10:37:50;25.00;99.90
21035;DHT22;10676;50.848;3.272;2023-05-07T10:40:16;24.90;99.90
21035;DHT22;10676;50.848;3.272;2023-05-07T10:43:03;24.90;99.90
21035;DHT22;10676;50.848;3.272;2023-05-07T10:45:30;24.90;99.90
21035;DHT22;10676;50.848;3.272;2023-05-07T10:48:10;24.80;99.90
21035;DHT22;10676;50.848;3.272;2023-05-07T10:50:40;24.70;99.90
21035;DHT22;10676;50.848;3.272;2023-05-07T10:55:49;24.60;99.90
21035;DHT22;10676;50.848;3.272;2023-05-07T11:00:48;24.60;99.90
21035;DHT22;10676;50.848;3.272;2023-05-07T11:03:14;24.60;99.90
21035;DHT22;10676;50.848;3.272;2023-05-07T11:05:41;24.70;99.90
21035;DHT22;10676;50.848;3.272;2023-05-07T11:08:08;24.90;99.90
21035;DHT22;10676;50.848;3.272;2023-05-07T11:10:59;25.10;99.90
21035;DHT22;10676;50.848;3.272;2023-05-07T11:13:57;25.30;99.90
21035;DHT22;10676;50.848;3.272;2023-05-07T11:16:24;25.50;99.90
21035;DHT22;10676;50.848;3.272;2023-05-07T11:18:55;25.60;99.90
21035;DHT22;10676;50.848;3.272;2023-05-07T11:21:38;25.60;99.90
21035;DHT22;10676;50.848;3.272;2023-05-07T11:24:08;25.70;99.90
21035;DHT22;10676;50.848;3.272;2023-05-07T11:26:48;25.70;99.90
21035;DHT22;10676;50.848;3.272;2023-05-07T11:29:19;25.50;99.90
21035;DHT22;10676;50.848;3.272;2023-05-07T11:31:49;25.20;99.90
21035;DHT22;10676;50.848;3.272;2023-05-07T11:34:21;24.80;99.90
21035;DHT22;10676;50.848;3.272;2023-05-07T11:36:47;24.30;99.90
21035;DHT22;10676;50.848;3.272;2023-05-07T11:39:33;23.70;99.90
21035;DHT22;10676;50.848;3.272;2023-05-07T11:42:02;23.00;99.90
21035;DHT22;10676;50.848;3.272;2023-05-07T11:44:44;22.50;99.90
21035;DHT22;10676;50.848;3.272;2023-05-07T11:47:11;22.00;99.90
21035;DHT22;10676;50.848;3.272;2023-05-07T11:49:42;21.70;99.90
21035;DHT22;10676;50.848;3.272;2023-05-07T11:52:08;21.60;99.90
21035;DHT22;10676;50.848;3.272;2023-05-07T11:54:37;21.60;99.90
21035;DHT22;10676;50.848;3.272;2023-05-07T11:57:03;21.60;99.90
21035;DHT22;10676;50.848;3.272;2023-05-07T11:59:28;21.80;99.90
21035;DHT22;10676;50.848;3.272;2023-05-07T12:01:57;22.00;99.90
21035;DHT22;10676;50.848;3.272;2023-05-07T12:04:24;22.40;99.90
21035;DHT22;10676;50.848;3.272;2023-05-07T12:06:54;22.80;99.90
21035;DHT22;10676;50.848;3.272;2023-05-07T12:09:21;23.20;99.90
21035;DHT22;10676;50.848;3.272;2023-05-07T12:11:47;23.70;99.90
21035;DHT22;10676;50.848;3.272;2023-05-07T12:14:13;24.10;99.90
21035;DHT22;10676;50.848;3.272;2023-05-07T12:16:40;24.50;99.90
21035;DHT22;10676;50.848;3.272;2023-05-07T12:19:07;24.90;99.90
21035;DHT22;10676;50.848;3.272;2023-05-07T12:21:34;25.30;99.90
21035;DHT22;10676;50.848;3.272;2023-05-07T12:24:01;25.60;99.90
21035;DHT22;10676;50.848;3.272;2023-05-07T12:26:27;25.70;99.90
21035;DHT22;10676;50.848;3.272;2023-05-07T12:28:53;25.90;99.90
21035;DHT22;10676;50.848;3.272;2023-05-07T12:31:18;26.10;99.90
21035;DHT22;10676;50.848;3.272;2023-05-07T12:33:45;26.20;99.90
21035;DHT22;10676;50.848;3.272;2023-05-07T12:36:12;26.50;99.90
21035;DHT22;10676;50.848;3.272;2023-05-07T12:38:39;26.60;99.90
21035;DHT22;10676;50.848;3.272;2023-05-07T12:41:07;26.70;99.90
21035;DHT22;10676;50.848;3.272;2023-05-07T12:43:34;26.90;99.90
21035;DHT22;10676;50.848;3.272;2023-05-07T12:46:01;27.00;99.90
21035;DHT22;10676;50.848;3.272;2023-05-07T12:48:28;27.00;99.90
21035;DHT22;10676;50.848;3.272;2023-05-07T12:50:55;27.20;99.90
21035;DHT22;10676;50.848;3.272;2023-05-07T12:53:23;27.30;99.90
21035;DHT22;10676;50.848;3.272;2023-05-07T12:55:51;27.40;99.90
21035;DHT22;10676;50.848;3.272;2023-05-07T12:58:28;27.50;99.90
21035;DHT22;10676;50.848;3.272;2023-05-07T13:00:56;27.60;99.90
21035;DHT22;10676;50.848;3.272;2023-05-07T13:03:33;27.80;99.90
21035;DHT22;10676;50.848;3.272;2023-05-07T13:06:05;27.90;99.90
21035;DHT22;10676;50.848;3.272;2023-05-07T13:08:33;28.10;99.90
21035;DHT22;10676;50.848;3.272;2023-05-07T13:11:00;28.40;99.90
21035;DHT22;10676;50.848;3.272;2023-05-07T13:13:34;28.60;99.90
21035;DHT22;10676;50.848;3.272;2023-05-07T13:16:00;29.00;99.90
21035;DHT22;10676;50.848;3.272;2023-05-07T13:18:28;29.30;99.90
21035;DHT22;10676;50.848;3.272;2023-05-07T13:20:54;29.50;99.90
21035;DHT22;10676;50.848;3.272;2023-05-07T13:23:20;29.50;99.90
21035;DHT22;10676;50.848;3.272;2023-05-07T13:25:46;29.50;99.90
21035;DHT22;10676;50.848;3.272;2023-05-07T13:28:12;29.50;99.90
21035;DHT22;10676;50.848;3.272;2023-05-07T13:30:38;29.50;99.90
21035;DHT22;10676;50.848;3.272;2023-05-07T13:33:04;29.40;99.90
21035;DHT22;10676;50.848;3.272;2023-05-07T13:35:29;29.30;99.90
21035;DHT22;10676;50.848;3.272;2023-05-07T13:37:55;29.20;99.90
21035;DHT22;10676;50.848;3.272;2023-05-07T13:40:22;29.20;99.90
21035;DHT22;10676;50.848;3.272;2023-05-07T13:42:48;29.20;99.90
21035;DHT22;10676;50.848;3.272;2023-05-07T13:45:14;29.30;99.90
21035;DHT22;10676;50.848;3.272;2023-05-07T13:47:43;29.20;99.90
21035;DHT22;10676;50.848;3.272;2023-05-07T13:50:10;29.00;99.90
21035;DHT22;10676;50.848;3.272;2023-05-07T13:52:37;28.80;99.90
21035;DHT22;10676;50.848;3.272;2023-05-07T13:55:03;28.60;99.90
21035;DHT22;10676;50.848;3.272;2023-05-07T13:57:29;28.30;99.90
21035;DHT22;10676;50.848;3.272;2023-05-07T13:59:55;28.20;99.90
21035;DHT22;10676;50.848;3.272;2023-05-07T14:02:21;28.00;99.90
21035;DHT22;10676;50.848;3.272;2023-05-07T14:04:46;28.00;99.90
21035;DHT22;10676;50.848;3.272;2023-05-07T14:07:12;27.90;99.90
21035;DHT22;10676;50.848;3.272;2023-05-07T14:09:38;27.80;99.90
21035;DHT22;10676;50.848;3.272;2023-05-07T14:12:04;27.80;99.90
21035;DHT22;10676;50.848;3.272;2023-05-07T14:14:30;27.80;99.90
21035;DHT22;10676;50.848;3.272;2023-05-07T14:16:57;27.80;99.90
21035;DHT22;10676;50.848;3.272;2023-05-07T14:19:22;27.90;99.90
21035;DHT22;10676;50.848;3.272;2023-05-07T14:21:48;28.00;99.90
21035;DHT22;10676;50.848;3.272;2023-05-07T14:24:14;28.20;99.90
21035;DHT22;10676;50.848;3.272;2023-05-07T14:26:40;28.40;99.90
21035;DHT22;10676;50.848;3.272;2023-05-07T14:29:06;28.60;99.90
21035;DHT22;10676;50.848;3.272;2023-05-07T14:31:32;28.70;99.90
21035;DHT22;10676;50.848;3.272;2023-05-07T14:33:58;28.70;99.90
21035;DHT22;10676;50.848;3.272;2023-05-07T14:36:25;28.80;99.90
21035;DHT22;10676;50.848;3.272;2023-05-07T14:38:55;28.70;99.90
21035;DHT22;10676;50.848;3.272;2023-05-07T14:41:24;28.60;99.90
21035;DHT22;10676;50.848;3.272;2023-05-07T14:43:50;28.60;99.90
21035;DHT22;10676;50.848;3.272;2023-05-07T14:46:19;28.60;99.90
21035;DHT22;10676;50.848;3.272;2023-05-07T14:48:45;28.60;99.90
21035;DHT22;10676;50.848;3.272;2023-05-07T14:51:14;28.70;99.90
21035;DHT22;10676;50.848;3.272;2023-05-07T14:53:43;28.90;99.90
21035;DHT22;10676;50.848;3.272;2023-05-07T14:56:09;29.10;99.90
21035;DHT22;10676;50.848;3.272;2023-05-07T14:58:35;29.30;99.90
21035;DHT22;10676;50.848;3.272;2023-05-07T15:01:03;29.60;99.90
21035;DHT22;10676;50.848;3.272;2023-05-07T15:03:28;29.70;99.80
21035;DHT22;10676;50.848;3.272;2023-05-07T15:05:55;29.80;99.40
21035;DHT22;10676;50.848;3.272;2023-05-07T15:08:21;29.80;99.60
21035;DHT22;10676;50.848;3.272;2023-05-07T15:10:46;29.70;99.30
21035;DHT22;10676;50.848;3.272;2023-05-07T15:13:12;29.50;99.20
21035;DHT22;10676;50.848;3.272;2023-05-07T15:15:39;29.20;99.90
21035;DHT22;10676;50.848;3.272;2023-05-07T15:18:04;29.00;99.90
21035;DHT22;10676;50.848;3.272;2023-05-07T15:20:30;28.80;99.90
21035;DHT22;10676;50.848;3.272;2023-05-07T15:22:56;28.60;99.90
21035;DHT22;10676;50.848;3.272;2023-05-07T15:25:23;28.40;99.90
21035;DHT22;10676;50.848;3.272;2023-05-07T15:27:48;28.40;99.90
21035;DHT22;10676;50.848;3.272;2023-05-07T15:30:14;28.70;99.90
21035;DHT22;10676;50.848;3.272;2023-05-07T15:32:42;29.00;99.90
21035;DHT22;10676;50.848;3.272;2023-05-07T15:35:09;29.40;99.90
21035;DHT22;10676;50.848;3.272;2023-05-07T15:37:35;29.90;99.90